Time;durP1;ratioP1;P1;durP2;ratioP2;P2;SDS_P1;SDS_P2;PMS_P1;PMS_P2;Temp;Humidity;BMP_temperature;BMP_pressure;BME280_temperature;BME280_humidity;BME280_pressure;Samples;Min_cycle;Max_cycle;Signal;HPM_P1;HPM_P2
2023/01/02 00:00:16;;;;;;;1.02;0.77;;;;;;;;;;5070290;28;20043;-44
2023/01/02 00:02:43;;;;;;;0.75;0.50;;;;;;;;;;5071126;28;20028;-45
2023/01/02 00:05:09;;;;;;;1.80;0.60;;;;;;;;;;5073402;28;20409;-44
2023/01/02 00:07:35;;;;;;;1.33;0.80;;;;;;;;;;5067565;28;20021;-46
2023/01/02 00:10:01;;;;;;;0.88;0.60;;;;;;;;;;5073116;28;20107;-44
2023/01/02 00:12:27;;;;;;;2.17;0.80;;;;;;;;;;5073594;28;20016;-45
2023/01/02 00:14:53;;;;;;;1.90;0.77;;;;;;;;;;5072237;28;20406;-44
2023/01/02 00:17:19;;;;;;;1.55;0.70;;;;;;;;;;5073661;28;20141;-44
2023/01/02 00:19:45;;;;;;;1.60;0.90;;;;;;;;;;5072476;28;20025;-44
2023/01/02 00:22:11;;;;;;;1.63;1.00;;;;;;;;;;5063369;28;20021;-46
2023/01/02 00:24:37;;;;;;;1.05;0.60;;;;;;;;;;5057305;28;20099;-46
2023/01/02 00:27:03;;;;;;;2.88;0.73;;;;;;;;;;5066766;28;20530;-44
2023/01/02 00:29:29;;;;;;;1.25;0.88;;;;;;;;;;5074667;28;20032;-44
2023/01/02 00:31:55;;;;;;;1.10;0.60;;;;;;;;;;5075155;28;20032;-44
2023/01/02 00:34:21;;;;;;;1.08;0.60;;;;;;;;;;5072317;28;20032;-44
2023/01/02 00:36:47;;;;;;;1.55;1.00;;;;;;;;;;5076604;28;20066;-44
2023/01/02 00:39:13;;;;;;;1.73;0.90;;;;;;;;;;5070810;28;20052;-44
2023/01/02 00:41:39;;;;;;;1.60;1.10;;;;;;;;;;5072145;28;20091;-44
2023/01/02 00:44:05;;;;;;;1.95;1.15;;;;;;;;;;5074397;28;20024;-44
2023/01/02 00:46:31;;;;;;;2.63;1.58;;;;;;;;;;5071641;28;20021;-44
2023/01/02 00:48:57;;;;;;;2.15;1.00;;;;;;;;;;5071662;28;20021;-44
2023/01/02 00:51:23;;;;;;;2.15;0.90;;;;;;;;;;5072713;28;20028;-44
2023/01/02 00:53:49;;;;;;;1.25;0.88;;;;;;;;;;5071593;28;20028;-44
2023/01/02 00:56:15;;;;;;;1.10;0.60;;;;;;;;;;5072719;28;20027;-45
2023/01/02 00:58:41;;;;;;;1.88;1.02;;;;;;;;;;5067782;28;20456;-44
2023/01/02 01:01:07;;;;;;;1.30;1.10;;;;;;;;;;5072976;28;20029;-44
2023/01/02 01:03:33;;;;;;;2.65;1.30;;;;;;;;;;5054231;28;20021;-46
2023/01/02 01:05:59;;;;;;;1.40;0.80;;;;;;;;;;5071938;28;20375;-45
2023/01/02 01:08:25;;;;;;;1.75;1.20;;;;;;;;;;5071060;28;20020;-44
2023/01/02 01:10:50;;;;;;;1.02;0.70;;;;;;;;;;5072453;28;20512;-44
2023/01/02 01:13:17;;;;;;;1.58;1.00;;;;;;;;;;5070333;28;20078;-45
2023/01/02 01:15:43;;;;;;;1.42;1.00;;;;;;;;;;5066625;28;20544;-44
2023/01/02 01:18:09;;;;;;;1.30;1.08;;;;;;;;;;5071867;28;20479;-44
2023/01/02 01:20:38;;;;;;;1.73;1.05;;;;;;;;;;5072312;28;20031;-45
2023/01/02 01:23:04;;;;;;;1.63;0.85;;;;;;;;;;5062004;28;20167;-44
2023/01/02 01:25:30;;;;;;;1.70;1.10;;;;;;;;;;5062789;28;20079;-44
2023/01/02 01:27:56;;;;;;;2.47;1.23;;;;;;;;;;5071363;28;20591;-44
2023/01/02 01:30:22;;;;;;;2.08;1.23;;;;;;;;;;5072102;28;20024;-44
2023/01/02 01:32:48;;;;;;;1.70;1.10;;;;;;;;;;5059058;28;20024;-44
2023/01/02 01:35:14;;;;;;;2.35;1.38;;;;;;;;;;5074726;28;20420;-45
2023/01/02 01:37:40;;;;;;;2.35;1.77;;;;;;;;;;5071148;28;20039;-45
2023/01/02 01:40:06;;;;;;;2.47;1.05;;;;;;;;;;5072314;28;20055;-44
2023/01/02 01:42:33;;;;;;;1.60;1.10;;;;;;;;;;5072007;28;20048;-44
2023/01/02 01:44:59;;;;;;;1.63;0.88;;;;;;;;;;5070991;28;20029;-44
2023/01/02 01:47:25;;;;;;;1.48;0.85;;;;;;;;;;5069964;28;20029;-44
2023/01/02 01:49:58;;;;;;;2.45;1.15;;;;;;;;;;5067474;28;20063;-44
2023/01/02 01:52:25;;;;;;;3.35;1.58;;;;;;;;;;5061398;28;20044;-44
2023/01/02 01:54:56;;;;;;;2.28;1.00;;;;;;;;;;5070493;28;20082;-44
2023/01/02 01:57:33;;;;;;;2.83;1.45;;;;;;;;;;5072034;28;20465;-44
2023/01/02 02:00:00;;;;;;;2.53;1.52;;;;;;;;;;5070509;28;20048;-44
2023/01/02 02:02:27;;;;;;;2.67;1.48;;;;;;;;;;5071593;28;20375;-44
2023/01/02 02:04:53;;;;;;;1.45;1.00;;;;;;;;;;5065192;28;20028;-44
2023/01/02 02:07:19;;;;;;;1.58;1.10;;;;;;;;;;5063519;28;20017;-44
2023/01/02 02:10:06;;;;;;;2.90;1.33;;;;;;;;;;5069764;28;20027;-44
2023/01/02 02:12:33;;;;;;;2.50;1.25;;;;;;;;;;5065711;28;20530;-44
2023/01/02 02:14:59;;;;;;;2.05;1.17;;;;;;;;;;5062140;28;20103;-44
2023/01/02 02:17:37;;;;;;;4.00;1.60;;;;;;;;;;5071356;28;20385;-44
2023/01/02 02:20:25;;;;;;;2.75;1.33;;;;;;;;;;5071902;28;20055;-44
2023/01/02 02:23:09;;;;;;;2.25;1.20;;;;;;;;;;5064163;28;20044;-44
2023/01/02 02:25:35;;;;;;;2.13;1.63;;;;;;;;;;5070860;28;20037;-46
2023/01/02 02:28:04;;;;;;;2.60;1.30;;;;;;;;;;5071168;28;20107;-44
2023/01/02 02:30:50;;;;;;;2.75;1.70;;;;;;;;;;5071424;28;20021;-44
2023/01/02 02:33:19;;;;;;;1.23;0.88;;;;;;;;;;5029656;28;20048;-45
2023/01/02 02:35:50;;;;;;;1.85;1.20;;;;;;;;;;5071852;28;20089;-44
2023/01/02 02:38:18;;;;;;;1.83;1.00;;;;;;;;;;5070733;28;20078;-44
2023/01/02 02:40:44;;;;;;;1.95;1.33;;;;;;;;;;5070501;28;20025;-44
2023/01/02 02:43:37;;;;;;;2.00;1.33;;;;;;;;;;5070527;28;20027;-44
2023/01/02 02:46:07;;;;;;;2.40;1.50;;;;;;;;;;5071205;28;20024;-45
2023/01/02 02:48:39;;;;;;;2.20;1.77;;;;;;;;;;5070582;28;20032;-46
2023/01/02 02:51:15;;;;;;;3.15;1.73;;;;;;;;;;5071131;28;20393;-44
2023/01/02 02:53:47;;;;;;;4.13;1.63;;;;;;;;;;5070130;28;20096;-44
2023/01/02 02:56:14;;;;;;;2.83;1.60;;;;;;;;;;5065468;28;20047;-44
2023/01/02 02:58:40;;;;;;;1.80;1.25;;;;;;;;;;5069471;28;20469;-44
2023/01/02 03:01:08;;;;;;;3.03;1.58;;;;;;;;;;5071112;28;20067;-44
2023/01/02 03:03:34;;;;;;;3.40;1.90;;;;;;;;;;5070157;28;20021;-46
2023/01/02 03:06:06;;;;;;;2.40;1.20;;;;;;;;;;5070068;28;20052;-44
2023/01/02 03:08:36;;;;;;;1.42;1.10;;;;;;;;;;5069860;28;20024;-45
2023/01/02 03:11:02;;;;;;;2.50;1.23;;;;;;;;;;5070925;28;20035;-44
2023/01/02 03:13:38;;;;;;;1.90;1.27;;;;;;;;;;5069085;28;20032;-44
2023/01/02 03:16:23;;;;;;;1.20;1.00;;;;;;;;;;5070788;28;20021;-44
2023/01/02 03:18:52;;;;;;;1.70;1.17;;;;;;;;;;5069102;28;20024;-44
2023/01/02 03:21:27;;;;;;;1.75;1.10;;;;;;;;;;5071208;28;20025;-44
2023/01/02 03:23:53;;;;;;;2.22;1.17;;;;;;;;;;5069451;28;20032;-45
2023/01/02 03:26:23;;;;;;;2.50;1.10;;;;;;;;;;5071340;28;20103;-43
2023/01/02 03:28:52;;;;;;;1.75;1.17;;;;;;;;;;5069621;28;20023;-44
2023/01/02 03:31:19;;;;;;;3.05;1.85;;;;;;;;;;5065038;28;20046;-44
2023/01/02 03:33:54;;;;;;;1.45;0.75;;;;;;;;;;5069454;28;20020;-44
2023/01/02 03:36:25;;;;;;;2.10;1.00;;;;;;;;;;5066535;28;20029;-44
2023/01/02 03:38:55;;;;;;;1.27;1.08;;;;;;;;;;5073259;28;20039;-44
2023/01/02 03:41:23;;;;;;;1.35;1.10;;;;;;;;;;5074583;28;20104;-44
2023/01/02 03:43:51;;;;;;;1.58;1.20;;;;;;;;;;5073365;28;20031;-44
2023/01/02 03:46:29;;;;;;;1.38;0.90;;;;;;;;;;5074047;28;20024;-45
2023/01/02 03:49:02;;;;;;;5.95;1.33;;;;;;;;;;5073004;28;20029;-44
2023/01/02 03:51:28;;;;;;;1.75;1.15;;;;;;;;;;5074281;28;20587;-44
2023/01/02 03:53:54;;;;;;;1.88;1.23;;;;;;;;;;5072842;28;20112;-44
2023/01/02 03:56:28;;;;;;;1.60;1.00;;;;;;;;;;5074115;28;20497;-44
2023/01/02 03:58:54;;;;;;;1.48;1.02;;;;;;;;;;5072605;28;20028;-44
2023/01/02 04:01:36;;;;;;;1.52;1.13;;;;;;;;;;5074062;28;20043;-45
2023/01/02 04:04:24;;;;;;;1.88;1.00;;;;;;;;;;5067640;28;20022;-45
2023/01/02 04:06:54;;;;;;;2.42;1.20;;;;;;;;;;5072934;28;20055;-44
2023/01/02 04:09:22;;;;;;;1.40;0.90;;;;;;;;;;5072970;28;20085;-44
2023/01/02 04:11:50;;;;;;;1.50;0.85;;;;;;;;;;5073313;28;20055;-44
2023/01/02 04:14:19;;;;;;;1.30;0.80;;;;;;;;;;5073315;28;20029;-44
2023/01/02 04:16:46;;;;;;;1.58;1.10;;;;;;;;;;5072851;28;20032;-44
2023/01/02 04:19:19;;;;;;;1.58;1.08;;;;;;;;;;5073274;28;20025;-44
2023/01/02 04:21:47;;;;;;;2.35;1.00;;;;;;;;;;5072856;28;20052;-44
2023/01/02 04:24:21;;;;;;;2.70;1.10;;;;;;;;;;5072897;28;20029;-44
2023/01/02 04:26:54;;;;;;;1.67;0.85;;;;;;;;;;5063211;28;20136;-44
2023/01/02 04:29:20;;;;;;;1.58;1.10;;;;;;;;;;5073576;28;20047;-44
2023/01/02 04:31:53;;;;;;;1.85;1.10;;;;;;;;;;5072745;28;20017;-44
2023/01/02 04:34:20;;;;;;;2.10;1.00;;;;;;;;;;5056321;28;20386;-44
2023/01/02 04:36:46;;;;;;;2.40;0.88;;;;;;;;;;5075650;28;20028;-44
2023/01/02 04:39:12;;;;;;;1.10;0.70;;;;;;;;;;5067566;28;20112;-44
2023/01/02 04:41:38;;;;;;;1.17;0.80;;;;;;;;;;5072887;28;20135;-45
2023/01/02 04:44:05;;;;;;;1.40;0.88;;;;;;;;;;5072627;28;20028;-44
2023/01/02 04:46:31;;;;;;;1.40;0.90;;;;;;;;;;5073511;28;20025;-44
2023/01/02 04:48:57;;;;;;;2.28;0.90;;;;;;;;;;5071694;28;20436;-44
2023/01/02 04:51:23;;;;;;;1.10;0.65;;;;;;;;;;5073389;28;20024;-44
2023/01/02 04:53:50;;;;;;;1.65;1.15;;;;;;;;;;5071530;28;20466;-44
2023/01/02 04:56:16;;;;;;;2.13;0.90;;;;;;;;;;5072826;28;20031;-44
2023/01/02 04:58:43;;;;;;;1.05;0.93;;;;;;;;;;5071697;28;20028;-45
2023/01/02 05:01:10;;;;;;;0.80;0.73;;;;;;;;;;5073239;28;20097;-44
2023/01/02 05:03:39;;;;;;;2.25;1.38;;;;;;;;;;5071462;28;20085;-46
2023/01/02 05:06:05;;;;;;;1.00;0.90;;;;;;;;;;5072476;28;20105;-44
2023/01/02 05:08:31;;;;;;;1.02;0.80;;;;;;;;;;5071618;28;20091;-44
2023/01/02 05:10:57;;;;;;;2.20;0.88;;;;;;;;;;5071463;28;20024;-44
2023/01/02 05:13:23;;;;;;;2.38;1.13;;;;;;;;;;5066890;28;20062;-44
2023/01/02 05:15:56;;;;;;;1.52;0.90;;;;;;;;;;5071915;28;20107;-44
2023/01/02 05:18:22;;;;;;;2.20;1.00;;;;;;;;;;5060978;28;20051;-44
2023/01/02 05:20:48;;;;;;;1.60;1.10;;;;;;;;;;5068904;28;20027;-44
2023/01/02 05:25:59;;;;;;;1.55;0.82;;;;;;;;;;5071473;28;20082;-44
2023/01/02 05:28:25;;;;;;;1.13;0.73;;;;;;;;;;5071938;28;20454;-44
2023/01/02 05:30:51;;;;;;;1.17;0.73;;;;;;;;;;5071302;28;20013;-44
2023/01/02 05:33:17;;;;;;;5.85;0.80;;;;;;;;;;5071991;28;20484;-44
2023/01/02 05:35:43;;;;;;;1.65;1.00;;;;;;;;;;5074809;28;20104;-44
2023/01/02 05:38:08;;;;;;;3.40;1.60;;;;;;;;;;5072103;28;20036;-44
2023/01/02 05:40:34;;;;;;;2.58;1.17;;;;;;;;;;5071986;28;20104;-46
2023/01/02 05:43:00;;;;;;;1.48;1.00;;;;;;;;;;5071493;28;20386;-44
2023/01/02 05:45:27;;;;;;;1.02;0.80;;;;;;;;;;5071719;28;20028;-44
2023/01/02 05:47:53;;;;;;;1.95;1.00;;;;;;;;;;5070873;28;20028;-44
2023/01/02 05:50:19;;;;;;;1.85;1.00;;;;;;;;;;5071653;28;20016;-44
2023/01/02 05:52:45;;;;;;;2.83;1.50;;;;;;;;;;5070937;28;20157;-44
2023/01/02 05:55:11;;;;;;;2.83;1.00;;;;;;;;;;5070707;28;20036;-44
2023/01/02 05:57:37;;;;;;;2.05;1.13;;;;;;;;;;5070922;28;20086;-46
2023/01/02 06:00:03;;;;;;;1.98;1.10;;;;;;;;;;5070895;28;20025;-44
2023/01/02 06:02:29;;;;;;;2.35;1.15;;;;;;;;;;5069155;28;20500;-44
2023/01/02 06:04:55;;;;;;;1.67;0.95;;;;;;;;;;5068082;28;20100;-44
2023/01/02 06:07:21;;;;;;;2.88;1.55;;;;;;;;;;5072197;28;20474;-44
2023/01/02 06:09:47;;;;;;;2.53;1.13;;;;;;;;;;5068873;28;20095;-44
2023/01/02 06:12:13;;;;;;;2.25;1.10;;;;;;;;;;5071623;28;20032;-44
2023/01/02 06:14:39;;;;;;;2.25;1.20;;;;;;;;;;5070451;28;20031;-44
2023/01/02 06:17:05;;;;;;;1.60;1.10;;;;;;;;;;5071366;28;20024;-44
2023/01/02 06:19:31;;;;;;;1.33;1.13;;;;;;;;;;5068491;28;20457;-44
2023/01/02 06:21:57;;;;;;;2.05;1.10;;;;;;;;;;5068025;28;20432;-44
2023/01/02 06:24:23;;;;;;;2.53;1.40;;;;;;;;;;5071167;28;20036;-44
2023/01/02 06:26:49;;;;;;;2.75;1.35;;;;;;;;;;5070437;28;20035;-44
2023/01/02 06:29:15;;;;;;;1.55;1.30;;;;;;;;;;5070996;28;20024;-44
2023/01/02 06:31:41;;;;;;;2.20;1.00;;;;;;;;;;5070817;28;20025;-44
2023/01/02 06:34:09;;;;;;;1.80;1.20;;;;;;;;;;5070948;28;20086;-44
2023/01/02 06:36:35;;;;;;;1.85;1.40;;;;;;;;;;5073310;28;20059;-45
2023/01/02 06:39:01;;;;;;;2.53;1.40;;;;;;;;;;5070785;28;20048;-44
2023/01/02 06:41:27;;;;;;;2.78;0.90;;;;;;;;;;5071378;28;20071;-44
2023/01/02 06:43:53;;;;;;;2.25;1.10;;;;;;;;;;5070019;28;20024;-44
2023/01/02 06:46:21;;;;;;;2.08;1.20;;;;;;;;;;5071245;28;20012;-44
2023/01/02 06:48:47;;;;;;;1.27;0.90;;;;;;;;;;5070063;28;20024;-44
2023/01/02 06:51:15;;;;;;;1.70;1.00;;;;;;;;;;5070875;28;20076;-44
2023/01/02 06:53:41;;;;;;;3.00;1.45;;;;;;;;;;5065827;28;20033;-44
2023/01/02 06:56:08;;;;;;;2.22;1.17;;;;;;;;;;5069174;28;20490;-44
2023/01/02 06:58:34;;;;;;;2.50;1.00;;;;;;;;;;5069996;28;20025;-46
2023/01/02 07:01:07;;;;;;;2.05;1.20;;;;;;;;;;5070472;28;20037;-44
2023/01/02 07:03:34;;;;;;;2.97;0.98;;;;;;;;;;5066438;28;20031;-46
2023/01/02 07:06:07;;;;;;;1.55;1.08;;;;;;;;;;5069682;28;20091;-44
2023/01/02 07:08:33;;;;;;;2.72;1.45;;;;;;;;;;5069695;28;20025;-45
2023/01/02 07:11:22;;;;;;;2.00;1.20;;;;;;;;;;5064158;28;20039;-45
2023/01/02 07:13:48;;;;;;;2.25;1.15;;;;;;;;;;5077649;28;20028;-44
2023/01/02 07:16:15;;;;;;;2.15;0.98;;;;;;;;;;5072285;28;20033;-44
2023/01/02 07:18:41;;;;;;;2.15;1.45;;;;;;;;;;5072289;28;20492;-45
2023/01/02 07:21:08;;;;;;;3.90;1.70;;;;;;;;;;5073236;28;20017;-44
2023/01/02 07:23:34;;;;;;;7.32;1.63;;;;;;;;;;5074441;28;20066;-46
2023/01/02 07:26:01;;;;;;;1.33;0.98;;;;;;;;;;5072448;28;20044;-44
2023/01/02 07:28:28;;;;;;;2.58;1.05;;;;;;;;;;5069192;28;20166;-44
2023/01/02 07:31:02;;;;;;;2.40;1.50;;;;;;;;;;5072027;28;20036;-44
2023/01/02 07:33:28;;;;;;;1.77;0.90;;;;;;;;;;5070329;28;20021;-44
2023/01/02 07:36:04;;;;;;;1.95;1.00;;;;;;;;;;5074873;28;20599;-45
2023/01/02 07:38:31;;;;;;;3.03;1.15;;;;;;;;;;5070675;28;20091;-44
2023/01/02 07:40:57;;;;;;;1.60;0.98;;;;;;;;;;5073086;28;20225;-44
2023/01/02 07:43:23;;;;;;;1.90;1.13;;;;;;;;;;5073913;28;20508;-44
2023/01/02 07:45:50;;;;;;;2.97;1.65;;;;;;;;;;5070692;28;20039;-44
2023/01/02 07:48:15;;;;;;;2.15;1.20;;;;;;;;;;5074166;28;20367;-44
2023/01/02 07:50:41;;;;;;;1.92;1.17;;;;;;;;;;5071516;28;20021;-44
2023/01/02 07:53:07;;;;;;;3.17;1.75;;;;;;;;;;5070924;28;20385;-44
2023/01/02 07:55:33;;;;;;;2.10;1.25;;;;;;;;;;5073868;28;20021;-46
2023/01/02 07:57:59;;;;;;;2.33;1.52;;;;;;;;;;5070994;28;20636;-44
2023/01/02 08:00:25;;;;;;;2.95;1.35;;;;;;;;;;5072592;28;20070;-44
2023/01/02 08:02:53;;;;;;;3.83;1.45;;;;;;;;;;5068141;28;20703;-44
2023/01/02 08:05:19;;;;;;;3.35;1.38;;;;;;;;;;5072478;28;20045;-44
2023/01/02 08:07:45;;;;;;;3.70;1.25;;;;;;;;;;5071193;28;20021;-44
2023/01/02 08:10:11;;;;;;;2.67;1.13;;;;;;;;;;5072389;28;20025;-44
2023/01/02 08:12:37;;;;;;;3.33;1.42;;;;;;;;;;5072246;28;20027;-46
2023/01/02 08:15:04;;;;;;;3.17;1.55;;;;;;;;;;5072226;28;20032;-44
2023/01/02 08:17:30;;;;;;;2.30;1.48;;;;;;;;;;5071519;28;20492;-44
2023/01/02 08:19:56;;;;;;;3.33;1.50;;;;;;;;;;5065569;28;20515;-44
2023/01/02 08:22:22;;;;;;;2.92;1.30;;;;;;;;;;5070672;28;20058;-44
2023/01/02 08:24:48;;;;;;;3.80;1.63;;;;;;;;;;5067026;28;20474;-44
2023/01/02 08:27:14;;;;;;;2.83;1.48;;;;;;;;;;5069574;28;20012;-44
2023/01/02 08:29:40;;;;;;;2.63;1.50;;;;;;;;;;5069627;28;20504;-44
2023/01/02 08:32:06;;;;;;;4.20;1.30;;;;;;;;;;5071005;28;20078;-44
2023/01/02 08:34:33;;;;;;;6.30;1.90;;;;;;;;;;5070564;28;20031;-45
2023/01/02 08:36:59;;;;;;;2.85;1.55;;;;;;;;;;5067932;28;20032;-44
2023/01/02 08:39:25;;;;;;;4.13;2.58;;;;;;;;;;5070424;28;20082;-44
2023/01/02 08:41:51;;;;;;;4.45;2.00;;;;;;;;;;5069823;28;20023;-45
2023/01/02 08:44:17;;;;;;;3.60;1.70;;;;;;;;;;5070052;28;20040;-44
2023/01/02 08:46:43;;;;;;;3.63;1.67;;;;;;;;;;5070096;28;20147;-44
2023/01/02 08:49:10;;;;;;;6.07;1.70;;;;;;;;;;5072784;28;20497;-44
2023/01/02 08:51:36;;;;;;;4.53;1.70;;;;;;;;;;5070181;28;20024;-45
2023/01/02 08:54:02;;;;;;;3.60;1.15;;;;;;;;;;5066945;28;20019;-44
2023/01/02 08:56:29;;;;;;;6.53;2.00;;;;;;;;;;5071465;28;20024;-45
2023/01/02 08:59:03;;;;;;;3.42;1.65;;;;;;;;;;5070154;28;20029;-44
2023/01/02 09:01:29;;;;;;;1.98;1.08;;;;;;;;;;5067852;28;20029;-46
2023/01/02 09:03:55;;;;;;;3.35;1.38;;;;;;;;;;5069115;28;20568;-45
2023/01/02 09:06:22;;;;;;;2.78;1.73;;;;;;;;;;5032056;28;1104187;-45
2023/01/02 09:08:51;;;;;;;6.03;1.60;;;;;;;;;;5070750;28;20052;-46
2023/01/02 09:11:18;;;;;;;6.32;1.75;;;;;;;;;;5066195;28;20024;-46
2023/01/02 09:13:44;;;;;;;5.10;1.50;;;;;;;;;;5071574;28;20035;-46
2023/01/02 09:16:10;;;;;;;2.78;1.35;;;;;;;;;;5072529;28;20032;-47
2023/01/02 09:18:37;;;;;;;3.80;1.75;;;;;;;;;;5071143;28;20466;-47
2023/01/02 09:21:03;;;;;;;8.15;3.28;;;;;;;;;;5072267;28;20044;-46
2023/01/02 09:23:30;;;;;;;4.22;2.25;;;;;;;;;;5071816;28;20028;-46
2023/01/02 09:26:00;;;;;;;3.20;1.75;;;;;;;;;;5071703;28;20025;-47
2023/01/02 09:28:26;;;;;;;3.63;1.70;;;;;;;;;;5071709;28;20023;-46
2023/01/02 09:30:53;;;;;;;5.80;1.92;;;;;;;;;;5071764;28;20462;-46
2023/01/02 09:33:19;;;;;;;3.70;1.38;;;;;;;;;;5071631;28;20591;-46
2023/01/02 09:35:44;;;;;;;3.25;1.77;;;;;;;;;;5074391;28;20111;-48
2023/01/02 09:38:10;;;;;;;5.75;1.85;;;;;;;;;;5071331;28;20034;-47
2023/01/02 09:40:38;;;;;;;4.43;1.92;;;;;;;;;;5071811;28;20021;-48
2023/01/02 09:43:04;;;;;;;2.53;1.60;;;;;;;;;;5071337;28;20032;-48
2023/01/02 09:45:30;;;;;;;5.85;1.55;;;;;;;;;;5071636;28;20032;-47
2023/01/02 09:47:59;;;;;;;4.13;1.42;;;;;;;;;;5070753;28;20300;-47
2023/01/02 09:50:29;;;;;;;3.28;1.67;;;;;;;;;;5071622;28;20017;-47
2023/01/02 09:52:57;;;;;;;2.67;1.50;;;;;;;;;;5069934;28;20012;-47
2023/01/02 09:55:37;;;;;;;5.95;2.05;;;;;;;;;;5071410;28;20028;-47
2023/01/02 09:58:15;;;;;;;3.75;1.52;;;;;;;;;;5070816;28;20373;-47
2023/01/02 10:00:42;;;;;;;5.65;1.58;;;;;;;;;;5066846;28;20083;-46
2023/01/02 10:03:26;;;;;;;4.88;2.05;;;;;;;;;;5065433;28;20469;-47
2023/01/02 10:06:11;;;;;;;3.85;1.80;;;;;;;;;;5069767;28;20041;-48
2023/01/02 10:08:46;;;;;;;4.57;1.77;;;;;;;;;;5070674;28;20025;-48
2023/01/02 10:11:30;;;;;;;5.22;1.58;;;;;;;;;;5071504;28;20114;-48
2023/01/02 10:14:07;;;;;;;2.95;1.50;;;;;;;;;;5069925;28;20086;-48
2023/01/02 10:16:37;;;;;;;4.70;1.45;;;;;;;;;;5071425;28;20381;-48
2023/01/02 10:19:07;;;;;;;4.47;1.63;;;;;;;;;;5068018;28;20029;-47
2023/01/02 10:21:35;;;;;;;6.30;1.42;;;;;;;;;;5065524;28;20025;-48
2023/01/02 10:24:04;;;;;;;5.32;1.42;;;;;;;;;;5069853;28;20025;-47
2023/01/02 10:26:37;;;;;;;2.80;1.23;;;;;;;;;;5071252;28;20032;-45
2023/01/02 10:29:16;;;;;;;4.20;1.80;;;;;;;;;;5069625;28;20032;-44
2023/01/02 10:31:47;;;;;;;5.18;1.63;;;;;;;;;;5070541;28;20023;-46
2023/01/02 10:34:18;;;;;;;4.47;1.88;;;;;;;;;;5070326;28;20082;-45
2023/01/02 10:36:45;;;;;;;5.55;1.23;;;;;;;;;;5073865;28;20032;-45
2023/01/02 10:39:15;;;;;;;5.03;1.60;;;;;;;;;;5071095;28;20029;-45
2023/01/02 10:41:42;;;;;;;2.63;1.15;;;;;;;;;;5070629;28;20421;-47
2023/01/02 10:44:12;;;;;;;3.05;1.23;;;;;;;;;;5070220;28;20024;-47
2023/01/02 10:46:40;;;;;;;3.00;1.40;;;;;;;;;;5070573;28;20354;-49
2023/01/02 10:49:10;;;;;;;5.90;1.67;;;;;;;;;;5060636;28;20063;-47
2023/01/02 10:51:37;;;;;;;2.47;1.13;;;;;;;;;;5068268;28;20908;-48
2023/01/02 10:54:03;;;;;;;4.50;1.80;;;;;;;;;;5069858;28;20377;-47
2023/01/02 10:56:31;;;;;;;9.65;1.77;;;;;;;;;;5071011;28;20082;-47
2023/01/02 10:58:57;;;;;;;4.97;1.58;;;;;;;;;;5068899;28;20090;-47
2023/01/02 11:01:23;;;;;;;10.55;1.75;;;;;;;;;;5062622;28;20025;-47
2023/01/02 11:04:08;;;;;;;7.15;1.40;;;;;;;;;;5069405;28;20035;-47
2023/01/02 11:06:35;;;;;;;5.80;1.30;;;;;;;;;;5067174;28;20045;-48
2023/01/02 11:09:03;;;;;;;3.40;1.38;;;;;;;;;;5070122;28;20211;-47
2023/01/02 11:11:30;;;;;;;6.10;1.30;;;;;;;;;;5070971;28;20029;-47
2023/01/02 11:14:04;;;;;;;4.82;1.85;;;;;;;;;;5069647;28;20168;-47
2023/01/02 11:16:32;;;;;;;4.25;1.45;;;;;;;;;;5071019;28;20025;-48
2023/01/02 11:19:00;;;;;;;2.95;1.50;;;;;;;;;;5069267;28;20540;-48
2023/01/02 11:21:26;;;;;;;2.83;1.08;;;;;;;;;;5071047;28;20033;-48
2023/01/02 11:23:57;;;;;;;4.82;1.60;;;;;;;;;;5069718;28;20090;-48
2023/01/02 11:26:24;;;;;;;3.03;1.42;;;;;;;;;;5066744;28;20036;-47
2023/01/02 11:28:51;;;;;;;3.25;1.15;;;;;;;;;;5069474;28;20024;-48
2023/01/02 11:31:17;;;;;;;4.80;1.50;;;;;;;;;;5070920;28;20046;-47
2023/01/02 11:33:44;;;;;;;3.20;1.15;;;;;;;;;;5069685;28;20082;-47
2023/01/02 11:36:10;;;;;;;2.08;1.00;;;;;;;;;;5074976;28;20521;-47
2023/01/02 11:38:42;;;;;;;4.40;1.00;;;;;;;;;;5070006;28;20143;-48
2023/01/02 11:41:21;;;;;;;2.72;1.23;;;;;;;;;;5070492;28;20036;-47
2023/01/02 11:43:51;;;;;;;3.65;1.45;;;;;;;;;;5069366;28;20036;-47
2023/01/02 11:46:31;;;;;;;2.95;1.05;;;;;;;;;;5070761;28;20476;-47
2023/01/02 11:49:11;;;;;;;5.80;1.30;;;;;;;;;;5068940;28;20724;-47
2023/01/02 11:51:38;;;;;;;2.95;1.25;;;;;;;;;;5070048;28;20065;-48
2023/01/02 11:54:06;;;;;;;3.38;1.13;;;;;;;;;;5070111;28;20024;-47
2023/01/02 11:56:36;;;;;;;3.20;1.20;;;;;;;;;;5070014;28;20470;-47
2023/01/02 11:59:05;;;;;;;3.85;1.58;;;;;;;;;;5071616;28;20025;-44
2023/01/02 12:01:41;;;;;;;5.00;1.73;;;;;;;;;;5061077;28;20063;-46
2023/01/02 12:04:07;;;;;;;1.52;0.90;;;;;;;;;;5073446;28;20020;-47
2023/01/02 12:06:52;;;;;;;4.38;1.45;;;;;;;;;;5073276;28;20106;-47
2023/01/02 12:09:35;;;;;;;5.57;1.65;;;;;;;;;;5073791;28;20024;-46
2023/01/02 12:12:12;;;;;;;3.55;1.20;;;;;;;;;;5071345;28;20102;-47
2023/01/02 12:14:57;;;;;;;5.35;1.92;;;;;;;;;;5072672;28;20029;-48
2023/01/02 12:17:34;;;;;;;4.78;1.20;;;;;;;;;;5063736;28;20029;-47
2023/01/02 12:20:26;;;;;;;2.47;1.10;;;;;;;;;;5070776;28;20024;-46
2023/01/02 12:22:58;;;;;;;1.90;1.02;;;;;;;;;;5072348;28;20036;-46
2023/01/02 12:25:24;;;;;;;;;;;;;;;;;;5074460;28;20029;-46
2023/01/02 12:27:57;;;;;;;6.13;1.67;;;;;;;;;;5073172;28;19904;-47
2023/01/02 12:30:23;;;;;;;2.90;1.38;;;;;;;;;;5066779;28;20398;-47
2023/01/02 12:32:49;;;;;;;2.88;0.98;;;;;;;;;;5072371;28;20032;-46
2023/01/02 12:35:27;;;;;;;2.10;1.00;;;;;;;;;;5072921;28;20380;-47
2023/01/02 12:37:55;;;;;;;2.83;1.45;;;;;;;;;;5068982;28;20036;-47
2023/01/02 12:40:27;;;;;;;7.55;2.88;;;;;;;;;;5073521;28;20040;-47
2023/01/02 12:42:59;;;;;;;2.67;1.23;;;;;;;;;;5072127;28;20365;-46
2023/01/02 12:45:25;;;;;;;;;;;;;;;;;;5073834;28;20169;-47
2023/01/02 12:48:03;;;;;;;3.65;1.35;;;;;;;;;;5072074;28;19987;-46
2023/01/02 12:50:36;;;;;;;3.60;1.20;;;;;;;;;;5068930;28;20021;-46
2023/01/02 12:53:11;;;;;;;3.63;1.27;;;;;;;;;;5064523;28;20024;-46
2023/01/02 12:55:44;;;;;;;2.17;0.90;;;;;;;;;;5072522;28;20385;-47
2023/01/02 12:58:25;;;;;;;1.63;0.88;;;;;;;;;;5055577;28;20052;-46
2023/01/02 13:00:57;;;;;;;2.95;1.10;;;;;;;;;;5065646;28;20039;-47
2023/01/02 13:03:25;;;;;;;7.60;1.63;;;;;;;;;;5071259;28;20036;-47
2023/01/02 13:05:57;;;;;;;1.77;1.02;;;;;;;;;;5065622;28;20119;-47
2023/01/02 13:08:22;;;;;;;1.20;0.90;;;;;;;;;;5068878;28;20090;-48
2023/01/02 13:10:49;;;;;;;2.90;1.60;;;;;;;;;;5069862;28;20016;-47
2023/01/02 13:13:16;;;;;;;3.20;1.40;;;;;;;;;;5067862;28;20486;-46
2023/01/02 13:15:46;;;;;;;1.77;1.00;;;;;;;;;;5067220;28;20040;-47
2023/01/02 13:18:23;;;;;;;2.10;0.90;;;;;;;;;;5070588;28;21481;-47
2023/01/02 13:20:57;;;;;;;3.13;1.30;;;;;;;;;;5071422;28;20052;-45
2023/01/02 13:23:30;;;;;;;4.88;1.25;;;;;;;;;;5066816;28;20028;-46
2023/01/02 13:25:59;;;;;;;5.32;1.35;;;;;;;;;;5059019;28;20044;-46
2023/01/02 13:28:25;;;;;;;1.70;1.08;;;;;;;;;;5061036;28;20093;-46
2023/01/02 13:30:51;;;;;;;3.42;1.42;;;;;;;;;;5068255;28;20347;-48
2023/01/02 13:33:17;;;;;;;2.90;1.08;;;;;;;;;;5062725;28;20035;-48
2023/01/02 13:35:43;;;;;;;3.65;1.25;;;;;;;;;;5056439;28;20525;-47
2023/01/02 13:38:11;;;;;;;2.45;0.90;;;;;;;;;;5073823;28;20466;-47
2023/01/02 13:40:37;;;;;;;2.88;1.02;;;;;;;;;;5069921;28;20501;-48
2023/01/02 13:43:05;;;;;;;4.45;1.27;;;;;;;;;;5061183;28;20076;-47
2023/01/02 13:45:50;;;;;;;6.22;2.28;;;;;;;;;;5071053;28;20025;-46
2023/01/02 13:48:22;;;;;;;3.83;1.35;;;;;;;;;;5063715;28;20462;-47
2023/01/02 13:50:48;;;;;;;;;;;;;;;;;;5070826;28;20023;-47
2023/01/02 13:53:24;;;;;;;7.53;1.38;;;;;;;;;;5064387;28;20354;-46
2023/01/02 13:55:59;;;;;;;4.25;1.98;;;;;;;;;;5069602;28;20048;-48
2023/01/02 13:58:36;;;;;;;3.70;1.70;;;;;;;;;;5065878;28;20033;-46
2023/01/02 14:01:22;;;;;;;5.75;1.23;;;;;;;;;;5065163;28;20071;-46
2023/01/02 14:03:49;;;;;;;3.58;1.30;;;;;;;;;;5047781;28;20387;-46
2023/01/02 14:06:32;;;;;;;3.92;1.48;;;;;;;;;;5061285;28;20048;-46
2023/01/02 14:09:04;;;;;;;6.45;1.77;;;;;;;;;;5068964;28;20074;-46
2023/01/02 14:11:39;;;;;;;9.43;2.10;;;;;;;;;;5066482;28;20057;-46
2023/01/02 14:14:10;;;;;;;10.88;1.85;;;;;;;;;;5066998;28;20029;-46
2023/01/02 14:16:55;;;;;;;5.57;1.40;;;;;;;;;;5058262;28;20086;-48
2023/01/02 14:19:22;;;;;;;3.33;1.27;;;;;;;;;;5065719;28;20025;-47
2023/01/02 14:21:48;;;;;;;3.45;1.45;;;;;;;;;;5061841;28;20092;-47
2023/01/02 14:24:43;;;;;;;3.30;1.30;;;;;;;;;;5072572;28;20113;-48
2023/01/02 14:27:15;;;;;;;2.38;1.10;;;;;;;;;;5041755;28;20051;-47
2023/01/02 14:29:40;;;;;;;;;;;;;;;;;;5066432;28;20043;-48
2023/01/02 14:32:17;;;;;;;3.33;1.13;;;;;;;;;;5061473;28;19904;-48
2023/01/02 14:34:47;;;;;;;5.13;2.13;;;;;;;;;;5067002;28;20044;-42
2023/01/02 14:37:25;;;;;;;4.70;1.40;;;;;;;;;;5057363;28;20045;-42
2023/01/02 14:39:51;;;;;;;2.65;1.25;;;;;;;;;;5069341;28;20029;-43
2023/01/02 14:45:06;;;;;;;6.90;1.40;;;;;;;;;;5063744;28;20170;-43
2023/01/02 14:47:42;;;;;;;4.97;1.60;;;;;;;;;;5063069;28;20028;-45
2023/01/02 14:50:13;;;;;;;9.88;2.28;;;;;;;;;;5063899;28;20021;-45
2023/01/02 14:52:41;;;;;;;7.43;2.22;;;;;;;;;;5063487;28;20350;-43
2023/01/02 14:55:07;;;;;;;13.75;1.98;;;;;;;;;;5069793;28;20060;-41
2023/01/02 14:57:43;;;;;;;8.98;2.05;;;;;;;;;;5063572;28;20024;-41
2023/01/02 15:00:23;;;;;;;6.45;2.17;;;;;;;;;;5064149;28;20099;-40